Impacts TAF Board
For situational awareness. Not to be used for flight planning purposes.
IDs:

KPGD - Punta Gorda/Charlott, FL, US

Issued at 1740 UTC 21 Sep 2021
Updated at 1928 UTC 21 Sep 2021
Potential Impact None Slight Moderate High
Time1925Z 21/20Z 21/21Z 21/22Z 21/23Z 22/00Z 22/01Z 22/02Z 22/03Z 22/04Z 22/05Z 22/06Z 22/07Z 22/08Z>>
Type OBS PRVL
  [TEMP]  
PRVL
  [TEMP]  
PRVL PRVL PRVL PRVL PRVL PRVL PRVL PRVL PRVL PRVL PRVL
VIS 10 >6
  [3]  
>6
  [3]  
>6 >6 >6 >6 >6 >6 >6 >6 >6 >6 >6
CIG 30 50
  [30]  
50
  [30]  
50 50 50 50 250 250 250 250 250 250 250
Cover OVC BKN
  [BKN]  
BKN
  [BKN]  
BKN BKN BKN BKN BKN BKN BKN BKN BKN BKN BKN
FltCat MVFR VFR
  [MVFR]  
VFR
  [MVFR]  
VFR VFR VFR VFR VFR VFR VFR VFR VFR VFR VFR
WX VCTS VCTS
  [TSRA]  
VCTS
  [TSRA]  
VCTS VCTS VCTS VCTS -- -- -- -- -- -- --
WDir 140 280
[VRB]
280
[VRB]
80 80 80 80 VRB VRB VRB VRB VRB VRB VRB
WSpd 15 6
  [15]  
6
  [15]  
5 5 5 5 3 3 3 3 3 3 3
WGst 22 --
  [25]  
--
  [25]  
-- -- -- -- -- -- -- -- -- -- --
Raw TAF
KPGD 211740Z 2118/2218 28006KT P6SM VCTS SCT030CB BKN050
  TEMPO 2119/2122 VRB15G25KT 3SM TSRA BKN030CB
  FM212200 08005KT P6SM VCTS SCT030CB BKN050
  FM220200 VRB03KT P6SM FEW025 SCT120 BKN250
  FM221500 23004KT P6SM VCSH SCT025 BKN250


Raw METAR
KPGD 211925Z 14015G22KT 10SM VCTS FEW013 BKN030 OVC039 27/24 A3002 RMK AO2 WSHFT 1854 LTG DSNT SE AND S AND NW T02670239
KPGD 211914Z 13016KT 10SM SCT030 BKN037 27/24 A3001 RMK AO2 WSHFT 1854 LTG DSNT ALQDS T02720244
KPGD 211853Z 12009KT 10SM SCT038 32/23 A3002 RMK AO2 LTG DSNT E-S SLP164 T03170233
KPGD 211753Z 28008KT 10SM FEW033 32/24 A3002 RMK AO2 LTG DSNT E SLP164 T03220239 10328 20244 58019
KPGD 211653Z VRB06KT 10SM BKN060 32/25 A3004 RMK AO2 SLP172 T03170250

METAR Board
Radar Display
Forecast Discussion
For situational awareness. Not to be used for flight planning purposes.